Time;durP1;ratioP1;P1;durP2;ratioP2;P2;SDS_P1;SDS_P2;PMS_P1;PMS_P2;Temp;Humidity;BMP_temperature;BMP_pressure;BME280_temperature;BME280_humidity;BME280_pressure;Samples;Min_cycle;Max_cycle;Signal;HPM_P1;HPM_P2
2022/07/22 00:02:09;;;;;;;2.70;1.30;;;22.80;99.90;;;;;;5088695;28;20619;-68
2022/07/22 00:04:35;;;;;;;3.33;1.83;;;22.80;99.90;;;;;;5063843;28;20186;-67
2022/07/22 00:07:02;;;;;;;2.90;1.40;;;22.80;99.90;;;;;;5088076;28;20272;-66
2022/07/22 00:09:29;;;;;;;5.70;1.97;;;22.80;99.80;;;;;;5061493;28;20334;-67
2022/07/22 00:11:55;;;;;;;2.63;1.60;;;22.80;99.80;;;;;;5089363;28;21016;-67
2022/07/22 00:14:22;;;;;;;3.83;1.40;;;22.80;99.90;;;;;;5088841;28;20542;-67
2022/07/22 00:16:50;;;;;;;3.63;1.70;;;22.80;99.90;;;;;;5089181;28;20674;-67
2022/07/22 00:19:18;;;;;;;1.57;1.23;;;22.80;99.70;;;;;;5086986;28;20193;-67
2022/07/22 00:21:45;;;;;;;4.67;1.50;;;22.80;99.80;;;;;;5090142;28;20178;-67
2022/07/22 00:24:11;;;;;;;5.43;1.53;;;22.80;99.60;;;;;;5072565;28;20277;-69
2022/07/22 00:26:37;;;;;;;6.37;1.70;;;22.80;99.60;;;;;;5072711;28;20655;-68
2022/07/22 00:29:04;;;;;;;6.60;1.60;;;22.80;99.60;;;;;;5053065;28;20727;-67
2022/07/22 00:31:31;;;;;;;4.33;1.60;;;22.80;99.40;;;;;;5088917;28;20202;-67
2022/07/22 00:34:01;;;;;;;3.20;1.60;;;22.60;99.30;;;;;;5085643;28;20282;-66
2022/07/22 00:36:28;;;;;;;3.53;1.70;;;22.60;99.50;;;;;;5087856;28;20186;-67
2022/07/22 00:38:55;;;;;;;3.20;1.47;;;22.70;99.70;;;;;;5089262;28;20178;-69
2022/07/22 00:41:21;;;;;;;5.83;1.90;;;22.70;99.50;;;;;;5087612;28;20197;-68
2022/07/22 00:44:02;;;;;;;3.93;1.70;;;22.60;99.40;;;;;;5085752;28;20186;-66
2022/07/22 00:46:29;;;;;;;2.30;1.40;;;22.40;99.60;;;;;;5088539;28;20182;-67
2022/07/22 00:48:58;;;;;;;5.47;1.60;;;22.30;99.80;;;;;;5069756;28;20194;-66
2022/07/22 00:51:26;;;;;;;3.70;1.73;;;22.20;99.90;;;;;;5081238;28;20597;-68
2022/07/22 00:53:56;;;;;;;4.23;1.63;;;22.20;99.90;;;;;;5065538;28;20240;-67
2022/07/22 00:56:26;;;;;;;8.27;2.10;;;22.20;99.90;;;;;;5087553;28;20281;-67
2022/07/22 00:58:56;;;;;;;5.70;1.80;;;22.10;99.90;;;;;;5078292;28;20547;-67
2022/07/22 01:01:23;;;;;;;5.10;1.73;;;22.10;99.90;;;;;;5070726;28;20178;-68
2022/07/22 01:03:49;;;;;;;3.07;1.57;;;22.10;99.90;;;;;;5084378;28;20193;-66
2022/07/22 01:06:15;;;;;;;7.10;1.70;;;22.00;99.90;;;;;;5053219;28;20263;-67
2022/07/22 01:08:42;;;;;;;4.03;1.43;;;22.00;99.90;;;;;;5082984;28;20644;-66
2022/07/22 01:11:15;;;;;;;6.33;1.50;;;22.00;99.90;;;;;;5068677;28;20301;-67
2022/07/22 01:13:44;;;;;;;4.03;1.60;;;21.90;99.90;;;;;;5067602;28;20194;-67
2022/07/22 01:16:12;;;;;;;4.57;1.50;;;21.90;99.90;;;;;;5087250;28;21021;-67
2022/07/22 01:18:40;;;;;;;4.77;1.70;;;21.90;99.90;;;;;;5087438;28;20615;-67
2022/07/22 01:21:08;;;;;;;2.37;1.70;;;21.80;99.90;;;;;;5088408;28;20290;-67
2022/07/22 01:23:36;;;;;;;4.67;1.70;;;21.80;99.90;;;;;;5086549;28;20201;-66
2022/07/22 01:26:04;;;;;;;5.40;1.63;;;21.80;99.90;;;;;;5085780;28;20206;-67
2022/07/22 01:28:31;;;;;;;3.03;1.60;;;21.80;99.90;;;;;;5052253;28;20351;-67
2022/07/22 01:30:58;;;;;;;6.73;2.30;;;21.80;99.90;;;;;;5069564;28;20205;-66
2022/07/22 01:33:25;;;;;;;4.70;1.90;;;21.80;99.90;;;;;;5064156;28;20807;-67
2022/07/22 01:35:53;;;;;;;10.00;2.03;;;21.80;99.90;;;;;;5087904;28;20185;-66
2022/07/22 01:38:19;;;;;;;3.23;1.50;;;21.80;99.90;;;;;;5082405;28;20185;-67
2022/07/22 01:40:46;;;;;;;3.90;1.60;;;21.80;99.90;;;;;;5068832;28;20697;-67
2022/07/22 01:43:17;;;;;;;4.83;1.83;;;21.80;99.90;;;;;;5087522;28;20194;-66
2022/07/22 01:45:45;;;;;;;4.00;1.70;;;21.80;99.90;;;;;;5076445;28;20177;-66
2022/07/22 01:48:12;;;;;;;3.27;1.50;;;21.70;99.90;;;;;;5087139;28;20295;-66
2022/07/22 01:50:40;;;;;;;4.30;1.83;;;21.80;99.90;;;;;;5065878;28;20198;-68
2022/07/22 01:53:07;;;;;;;4.60;1.70;;;21.70;99.90;;;;;;5082762;28;20194;-68
2022/07/22 01:55:35;;;;;;;4.17;1.77;;;21.70;99.90;;;;;;5042335;28;20640;-67
2022/07/22 01:58:03;;;;;;;2.23;1.40;;;21.80;99.90;;;;;;5087104;28;20200;-66
2022/07/22 02:00:30;;;;;;;4.47;1.80;;;21.80;99.90;;;;;;5075573;28;20194;-67
2022/07/22 02:02:58;;;;;;;2.37;1.53;;;21.70;99.90;;;;;;5081106;28;20178;-68
2022/07/22 02:05:24;;;;;;;6.63;1.90;;;21.70;99.90;;;;;;5071367;28;20240;-68
2022/07/22 02:07:52;;;;;;;2.77;1.90;;;21.70;99.90;;;;;;5054168;28;20186;-67
2022/07/22 02:10:19;;;;;;;8.03;1.90;;;21.70;99.90;;;;;;5090018;28;20244;-68
2022/07/22 02:12:45;;;;;;;3.70;1.70;;;21.70;99.90;;;;;;5069964;28;20526;-66
2022/07/22 02:15:12;;;;;;;3.20;1.67;;;21.70;99.90;;;;;;5086921;28;20198;-66
2022/07/22 02:17:38;;;;;;;4.90;1.87;;;21.60;99.90;;;;;;5073312;28;20562;-66
2022/07/22 02:20:05;;;;;;;2.90;1.87;;;21.50;99.90;;;;;;5079561;28;20247;-67
2022/07/22 02:22:31;;;;;;;4.77;1.87;;;21.60;99.90;;;;;;5087446;28;20300;-66
2022/07/22 02:24:57;;;;;;;5.57;1.90;;;21.60;99.90;;;;;;5088729;28;20190;-66
2022/07/22 02:27:24;;;;;;;4.23;1.70;;;21.60;99.90;;;;;;5073694;28;20217;-67
2022/07/22 02:29:50;;;;;;;4.07;1.60;;;21.60;99.90;;;;;;5070774;28;20223;-66
2022/07/22 02:32:16;;;;;;;4.73;1.80;;;21.60;99.90;;;;;;5090931;28;20214;-66
2022/07/22 02:34:43;;;;;;;9.53;2.33;;;21.60;99.90;;;;;;5090608;28;20273;-67
2022/07/22 02:37:09;;;;;;;7.80;1.90;;;21.60;99.90;;;;;;5070942;28;20198;-66
2022/07/22 02:39:35;;;;;;;3.13;1.90;;;21.60;99.90;;;;;;5090836;28;21061;-66
2022/07/22 02:42:02;;;;;;;5.70;2.17;;;21.60;99.90;;;;;;5089225;28;20185;-67
2022/07/22 02:44:28;;;;;;;3.90;2.03;;;21.60;99.90;;;;;;5075138;28;20194;-67
2022/07/22 02:46:54;;;;;;;3.80;1.90;;;21.60;99.90;;;;;;5090167;28;20206;-68
2022/07/22 02:49:20;;;;;;;6.67;1.90;;;21.60;99.90;;;;;;5082656;28;20191;-66
2022/07/22 02:51:46;;;;;;;8.20;2.20;;;21.60;99.90;;;;;;5071556;28;20228;-66
2022/07/22 02:54:13;;;;;;;7.40;2.20;;;21.60;99.90;;;;;;5088773;28;20280;-66
2022/07/22 02:56:39;;;;;;;5.50;2.00;;;21.50;99.90;;;;;;5075272;28;20183;-68
2022/07/22 02:59:05;;;;;;;4.60;2.07;;;21.50;99.90;;;;;;5089711;28;20186;-67
2022/07/22 03:01:32;;;;;;;3.97;1.70;;;21.50;99.90;;;;;;5073183;28;20182;-66
2022/07/22 03:03:58;;;;;;;7.97;1.87;;;21.60;99.90;;;;;;5080240;28;20186;-66
2022/07/22 03:06:24;;;;;;;10.87;2.10;;;21.60;99.90;;;;;;5081135;28;20297;-67
2022/07/22 03:08:51;;;;;;;4.50;2.00;;;21.50;99.90;;;;;;5085871;28;20210;-66
2022/07/22 03:11:17;;;;;;;7.27;2.43;;;21.50;99.90;;;;;;5068533;28;20295;-66
2022/07/22 03:13:43;;;;;;;7.67;2.10;;;21.60;99.90;;;;;;5067680;28;20182;-66
2022/07/22 03:16:10;;;;;;;6.50;2.20;;;21.60;99.90;;;;;;5082097;28;20249;-66
2022/07/22 03:18:36;;;;;;;5.20;1.97;;;21.60;99.90;;;;;;5070762;28;20193;-66
2022/07/22 03:21:02;;;;;;;4.97;2.07;;;21.60;99.90;;;;;;5067751;28;20187;-67
2022/07/22 03:23:29;;;;;;;4.47;2.00;;;21.60;99.90;;;;;;5096308;28;20191;-68
2022/07/22 03:25:56;;;;;;;4.77;1.80;;;21.70;99.90;;;;;;5089468;28;20189;-69
2022/07/22 03:28:24;;;;;;;3.20;1.90;;;21.70;99.90;;;;;;5065787;28;20194;-66
2022/07/22 03:30:54;;;;;;;5.03;1.93;;;21.70;99.90;;;;;;5075503;28;20222;-66
2022/07/22 03:33:20;;;;;;;4.17;1.70;;;21.70;99.90;;;;;;5088295;28;20256;-66
2022/07/22 03:35:46;;;;;;;3.70;1.90;;;21.70;99.90;;;;;;5086837;28;20269;-68
2022/07/22 03:38:12;;;;;;;4.97;2.00;;;21.60;99.90;;;;;;5070601;28;20182;-66
2022/07/22 03:40:39;;;;;;;4.47;1.97;;;21.70;99.90;;;;;;5089673;28;20198;-66
2022/07/22 03:43:08;;;;;;;6.30;1.90;;;21.60;99.90;;;;;;5094415;28;20195;-67
2022/07/22 03:45:34;;;;;;;2.90;1.50;;;21.60;99.90;;;;;;5088816;28;20252;-66
2022/07/22 03:48:03;;;;;;;2.63;1.70;;;21.50;99.90;;;;;;5070053;28;20198;-68
2022/07/22 03:50:29;;;;;;;3.30;1.80;;;21.50;99.90;;;;;;5089236;28;20210;-66
2022/07/22 03:52:56;;;;;;;6.17;1.97;;;21.50;99.90;;;;;;5090498;28;20202;-68
2022/07/22 03:55:22;;;;;;;4.40;1.80;;;21.60;99.90;;;;;;5072582;28;20883;-68
2022/07/22 03:57:48;;;;;;;7.60;2.03;;;21.50;99.90;;;;;;5087420;28;20209;-67
2022/07/22 04:00:15;;;;;;;4.27;1.70;;;21.60;99.90;;;;;;5075882;28;20285;-69
2022/07/22 04:02:41;;;;;;;5.90;1.80;;;21.60;99.90;;;;;;5101345;28;20326;-67
2022/07/22 04:05:08;;;;;;;3.30;1.90;;;21.70;99.90;;;;;;5058423;28;20229;-66
2022/07/22 04:07:34;;;;;;;4.13;1.97;;;21.60;99.90;;;;;;5073469;28;20194;-67
2022/07/22 04:10:07;;;;;;;5.00;1.90;;;21.60;99.90;;;;;;5069644;28;20229;-68
2022/07/22 04:12:37;;;;;;;4.93;2.10;;;21.50;99.90;;;;;;5086603;28;20197;-69
2022/07/22 04:15:06;;;;;;;4.53;1.70;;;21.60;99.90;;;;;;5083777;28;20195;-69
2022/07/22 04:17:33;;;;;;;2.87;1.60;;;21.60;99.90;;;;;;5082778;28;20214;-67
2022/07/22 04:20:00;;;;;;;4.87;1.77;;;21.60;99.90;;;;;;5066862;28;20762;-66
2022/07/22 04:22:27;;;;;;;7.07;2.57;;;21.60;99.90;;;;;;5069515;28;20187;-66
2022/07/22 04:24:54;;;;;;;4.10;1.60;;;21.60;99.90;;;;;;5083754;28;20289;-66
2022/07/22 04:27:21;;;;;;;1.93;1.60;;;21.60;99.90;;;;;;5072807;28;20599;-67
2022/07/22 04:29:47;;;;;;;5.40;2.07;;;21.70;99.90;;;;;;5079915;28;20201;-66
2022/07/22 04:32:13;;;;;;;6.03;2.00;;;21.80;99.90;;;;;;5085880;28;20202;-67
2022/07/22 04:34:40;;;;;;;2.80;1.70;;;21.80;99.90;;;;;;5079555;28;20250;-66
2022/07/22 04:37:06;;;;;;;6.00;1.90;;;21.90;99.90;;;;;;5079354;28;20182;-67
2022/07/22 04:39:32;;;;;;;4.17;1.60;;;22.00;99.90;;;;;;5068233;28;20198;-66
2022/07/22 04:42:00;;;;;;;3.47;1.90;;;22.10;99.90;;;;;;5086206;28;20190;-67
2022/07/22 04:44:26;;;;;;;2.03;1.60;;;22.10;99.90;;;;;;5085451;28;20278;-66
2022/07/22 04:46:53;;;;;;;5.63;2.23;;;22.20;99.90;;;;;;5068001;28;20198;-67
2022/07/22 04:49:20;;;;;;;4.57;2.00;;;22.30;99.90;;;;;;5044190;28;20210;-66
2022/07/22 04:51:46;;;;;;;5.67;1.87;;;22.50;99.90;;;;;;5092169;28;20214;-67
2022/07/22 04:54:12;;;;;;;3.93;2.17;;;22.50;99.90;;;;;;5089432;28;20220;-67
2022/07/22 04:56:39;;;;;;;3.87;2.13;;;22.60;99.90;;;;;;5087726;28;20182;-67
2022/07/22 04:59:05;;;;;;;4.57;1.73;;;22.80;99.90;;;;;;5066985;28;20236;-66
2022/07/22 05:01:32;;;;;;;4.73;2.20;;;22.80;99.90;;;;;;5066945;28;20895;-69
2022/07/22 05:03:58;;;;;;;6.20;2.30;;;22.80;99.90;;;;;;5084281;28;20190;-67
2022/07/22 05:06:25;;;;;;;5.80;2.30;;;22.90;99.90;;;;;;5083944;28;20445;-66
2022/07/22 05:08:53;;;;;;;3.97;2.07;;;23.00;99.90;;;;;;5068856;28;20194;-66
2022/07/22 05:11:19;;;;;;;5.28;2.22;;;23.00;99.90;;;;;;5087013;28;20222;-69
2022/07/22 05:13:45;;;;;;;5.40;2.00;;;23.20;99.90;;;;;;5066685;28;20264;-67
2022/07/22 05:16:12;;;;;;;4.00;1.87;;;23.30;99.90;;;;;;5085948;28;20677;-67
2022/07/22 05:18:38;;;;;;;4.00;2.17;;;23.40;99.90;;;;;;5088417;28;20830;-66
2022/07/22 05:21:05;;;;;;;3.47;2.00;;;23.50;99.90;;;;;;5085950;28;20270;-66
2022/07/22 05:23:34;;;;;;;6.10;1.90;;;23.50;99.90;;;;;;5075315;28;20662;-66
2022/07/22 05:26:00;;;;;;;4.20;1.92;;;23.50;99.90;;;;;;5076875;28;21914;-67
2022/07/22 05:28:29;;;;;;;2.67;1.80;;;23.60;99.90;;;;;;5084251;28;20190;-66
2022/07/22 05:30:57;;;;;;;5.40;1.90;;;23.70;99.90;;;;;;5078074;28;20214;-67
2022/07/22 05:33:23;;;;;;;9.93;2.08;;;23.80;99.90;;;;;;5086100;28;20546;-69
2022/07/22 05:35:49;;;;;;;4.60;1.80;;;23.80;99.90;;;;;;5080039;28;20198;-68
2022/07/22 05:38:16;;;;;;;5.10;1.98;;;23.90;99.90;;;;;;5067536;28;20197;-66
2022/07/22 05:40:42;;;;;;;3.03;1.83;;;24.00;99.90;;;;;;5084683;28;20194;-67
2022/07/22 05:43:08;;;;;;;5.20;2.00;;;24.00;99.90;;;;;;5062893;28;20688;-67
2022/07/22 05:45:34;;;;;;;3.08;1.90;;;24.10;99.90;;;;;;5085776;28;20293;-68
2022/07/22 05:48:01;;;;;;;2.22;1.60;;;24.10;99.90;;;;;;5056382;28;20509;-67
2022/07/22 05:50:30;;;;;;;10.98;2.38;;;24.10;99.90;;;;;;5070300;28;20211;-67
2022/07/22 05:52:56;;;;;;;10.07;2.20;;;24.20;99.90;;;;;;5086370;28;20186;-68
2022/07/22 05:55:22;;;;;;;4.07;1.70;;;24.30;99.90;;;;;;5086503;28;20643;-67
2022/07/22 05:57:49;;;;;;;3.05;1.75;;;24.40;99.90;;;;;;5064529;28;20197;-68
2022/07/22 06:00:16;;;;;;;6.45;1.90;;;24.40;99.90;;;;;;5085271;28;20260;-67
2022/07/22 06:02:42;;;;;;;1.58;1.30;;;24.50;99.90;;;;;;5045429;28;20191;-67
2022/07/22 06:05:09;;;;;;;3.70;1.60;;;24.60;99.90;;;;;;5081048;28;20225;-67
2022/07/22 06:07:35;;;;;;;3.97;1.98;;;24.90;99.90;;;;;;5074944;28;20729;-69
2022/07/22 06:10:02;;;;;;;3.85;1.80;;;25.00;99.80;;;;;;5087247;28;20583;-67
2022/07/22 06:12:28;;;;;;;3.08;1.60;;;25.10;99.00;;;;;;5068515;28;20197;-67
2022/07/22 06:14:55;;;;;;;2.92;1.50;;;25.10;98.60;;;;;;5059401;28;20209;-66
2022/07/22 06:17:22;;;;;;;2.35;1.40;;;25.10;99.10;;;;;;5072717;28;20214;-64
2022/07/22 06:19:49;;;;;;;3.40;1.58;;;25.20;97.60;;;;;;5083557;28;20203;-68
2022/07/22 06:22:17;;;;;;;6.45;1.50;;;25.20;97.40;;;;;;5046992;28;20644;-67
2022/07/22 06:24:44;;;;;;;5.35;1.80;;;25.30;97.10;;;;;;5084612;28;20204;-64
2022/07/22 06:27:11;;;;;;;5.20;1.48;;;25.40;96.70;;;;;;5078635;28;20194;-66
2022/07/22 06:29:37;;;;;;;8.35;1.60;;;25.70;95.50;;;;;;5085498;28;20235;-65
2022/07/22 06:32:04;;;;;;;3.55;1.55;;;25.90;94.80;;;;;;5067849;28;20603;-64
2022/07/22 06:34:30;;;;;;;8.45;1.98;;;26.00;95.20;;;;;;5086687;28;20278;-65
2022/07/22 06:36:57;;;;;;;5.20;1.85;;;26.20;94.60;;;;;;5081077;28;20235;-65
2022/07/22 06:39:23;;;;;;;4.07;1.70;;;26.30;95.00;;;;;;5085781;28;20186;-66
2022/07/22 06:41:49;;;;;;;11.75;1.80;;;26.40;95.70;;;;;;5066676;28;20566;-66
2022/07/22 06:44:16;;;;;;;4.65;1.60;;;26.40;95.80;;;;;;5084617;28;20190;-65
2022/07/22 06:46:42;;;;;;;6.78;1.70;;;26.50;96.20;;;;;;5066452;28;20215;-65
2022/07/22 06:49:09;;;;;;;5.05;1.77;;;26.70;96.90;;;;;;5079148;28;20646;-66
2022/07/22 06:51:36;;;;;;;4.45;1.85;;;26.70;97.50;;;;;;5071916;28;20853;-67
2022/07/22 06:54:03;;;;;;;5.68;2.10;;;26.90;98.10;;;;;;5089609;28;20206;-65
2022/07/22 06:56:29;;;;;;;7.53;2.00;;;27.00;98.20;;;;;;5086707;28;20335;-67
2022/07/22 06:58:55;;;;;;;7.95;1.80;;;27.20;98.70;;;;;;5079099;28;20265;-66
2022/07/22 07:01:22;;;;;;;10.77;1.98;;;27.20;98.70;;;;;;5085666;28;20673;-68
2022/07/22 07:03:49;;;;;;;6.80;2.35;;;27.30;99.80;;;;;;5078535;28;20217;-67
2022/07/22 07:06:15;;;;;;;11.45;2.42;;;27.50;99.90;;;;;;5065229;28;20198;-67
2022/07/22 07:08:42;;;;;;;7.63;2.38;;;27.60;99.90;;;;;;5084547;28;20194;-67
2022/07/22 07:11:08;;;;;;;8.48;2.25;;;27.60;99.90;;;;;;5089124;28;20214;-66
2022/07/22 07:13:35;;;;;;;6.47;2.13;;;27.70;99.90;;;;;;5087116;28;20214;-68
2022/07/22 07:16:01;;;;;;;6.40;2.40;;;27.70;99.90;;;;;;5067717;28;20181;-68
2022/07/22 07:18:28;;;;;;;5.95;2.03;;;27.80;99.90;;;;;;5071398;28;20213;-67
2022/07/22 07:20:54;;;;;;;9.13;2.50;;;27.80;99.90;;;;;;5068881;28;20197;-67
2022/07/22 07:23:22;;;;;;;9.25;2.35;;;27.90;99.90;;;;;;5087875;28;20194;-69
2022/07/22 07:25:48;;;;;;;10.90;2.53;;;27.90;99.90;;;;;;5053588;28;20182;-67
2022/07/22 07:28:14;;;;;;;13.77;2.63;;;28.00;99.90;;;;;;5088198;28;20198;-68
2022/07/22 07:30:41;;;;;;;9.00;2.63;;;28.00;99.90;;;;;;5086821;28;20686;-67
2022/07/22 07:33:07;;;;;;;9.70;2.40;;;28.10;99.90;;;;;;5089080;28;20194;-67
2022/07/22 07:35:34;;;;;;;7.75;2.30;;;28.20;99.90;;;;;;5086516;28;20182;-67
2022/07/22 07:38:00;;;;;;;7.30;2.28;;;28.30;99.90;;;;;;5081374;28;20192;-67
2022/07/22 07:40:27;;;;;;;14.75;2.53;;;28.40;99.90;;;;;;5053816;28;20246;-68
2022/07/22 07:42:53;;;;;;;8.50;2.30;;;28.40;99.90;;;;;;5080114;28;20305;-67
2022/07/22 07:45:19;;;;;;;6.80;2.10;;;28.50;99.90;;;;;;5085676;28;20193;-69
2022/07/22 07:47:47;;;;;;;7.25;2.38;;;28.60;99.90;;;;;;5066426;28;20201;-69
2022/07/22 07:50:14;;;;;;;11.18;2.53;;;28.70;99.90;;;;;;5082114;28;20296;-68
2022/07/22 07:52:49;;;;;;;7.85;2.63;;;28.70;99.90;;;;;;5085352;28;20214;-66
2022/07/22 07:55:16;;;;;;;10.70;2.22;;;28.80;99.90;;;;;;5083391;28;20195;-68
2022/07/22 07:57:43;;;;;;;8.52;2.53;;;28.80;99.90;;;;;;5062529;28;20712;-67
2022/07/22 08:00:11;;;;;;;9.95;2.42;;;28.80;99.90;;;;;;5062301;28;20191;-67
2022/07/22 08:02:38;;;;;;;8.23;2.80;;;29.00;99.90;;;;;;5083035;28;20206;-68
2022/07/22 08:05:05;;;;;;;10.30;2.47;;;29.00;99.90;;;;;;5071335;28;20214;-67
2022/07/22 08:07:31;;;;;;;5.53;2.50;;;29.00;99.90;;;;;;5084224;28;20194;-67
2022/07/22 08:09:58;;;;;;;8.85;2.58;;;29.10;99.90;;;;;;5081254;28;20186;-66
2022/07/22 08:12:24;;;;;;;13.13;2.58;;;29.20;99.90;;;;;;5060917;28;20190;-67
2022/07/22 08:14:51;;;;;;;6.93;2.28;;;29.20;99.90;;;;;;5078428;28;20213;-68
2022/07/22 08:17:17;;;;;;;12.80;3.08;;;29.30;99.90;;;;;;5084827;28;20683;-68
2022/07/22 08:19:43;;;;;;;12.43;2.30;;;29.30;99.90;;;;;;5082549;28;20635;-67
2022/07/22 08:22:10;;;;;;;12.80;2.85;;;29.30;99.90;;;;;;5079424;28;20274;-68
2022/07/22 08:24:36;;;;;;;6.57;2.28;;;29.40;99.90;;;;;;5081218;28;20190;-69
2022/07/22 08:27:03;;;;;;;7.57;2.35;;;29.50;99.90;;;;;;5063260;28;20228;-68
2022/07/22 08:29:31;;;;;;;10.57;2.55;;;29.50;99.90;;;;;;5065170;28;20191;-68
2022/07/22 08:31:57;;;;;;;8.02;2.50;;;29.60;99.90;;;;;;5062278;28;20222;-68
2022/07/22 08:34:23;;;;;;;10.75;2.30;;;29.70;99.90;;;;;;5067855;28;20243;-68
2022/07/22 08:36:50;;;;;;;6.85;2.10;;;29.80;99.90;;;;;;5065388;28;20718;-67
2022/07/22 08:39:17;;;;;;;6.53;2.40;;;29.80;99.90;;;;;;5087595;28;20292;-67
2022/07/22 08:41:43;;;;;;;10.05;2.60;;;29.90;99.90;;;;;;5083949;28;20269;-67
2022/07/22 08:44:11;;;;;;;8.13;2.40;;;30.00;99.90;;;;;;5066040;28;20678;-68
2022/07/22 08:46:37;;;;;;;7.85;2.60;;;30.00;99.90;;;;;;5078238;28;20626;-69
2022/07/22 08:49:06;;;;;;;4.85;2.00;;;30.10;99.90;;;;;;5064742;28;20748;-70
2022/07/22 08:51:35;;;;;;;7.00;2.08;;;30.20;99.90;;;;;;5082067;28;20239;-68
2022/07/22 08:54:02;;;;;;;7.82;2.30;;;30.30;99.90;;;;;;5078600;28;20197;-67
2022/07/22 08:56:29;;;;;;;10.55;2.30;;;30.40;99.90;;;;;;5073175;28;20190;-67
2022/07/22 08:58:55;;;;;;;6.55;2.38;;;30.50;99.90;;;;;;5087313;28;20662;-67
2022/07/22 09:01:24;;;;;;;9.98;3.08;;;30.60;99.90;;;;;;5064530;28;20290;-67
2022/07/22 09:03:57;;;;;;;6.00;1.83;;;30.70;99.90;;;;;;5084707;28;20335;-67
2022/07/22 09:06:33;;;;;;;4.82;1.90;;;30.70;99.90;;;;;;5088657;28;20234;-66
2022/07/22 09:09:06;;;;;;;6.38;2.40;;;30.80;99.70;;;;;;5088256;28;20239;-68
2022/07/22 09:11:32;;;;;;;7.60;2.20;;;30.80;99.90;;;;;;5086062;28;20229;-68
2022/07/22 09:14:00;;;;;;;9.02;2.20;;;31.00;99.10;;;;;;5050319;28;20665;-66
2022/07/22 09:16:45;;;;;;;8.60;2.50;;;31.20;97.70;;;;;;5075893;28;20210;-66
2022/07/22 09:19:12;;;;;;;9.85;2.20;;;31.40;99.00;;;;;;5068689;28;20512;-66
2022/07/22 09:21:42;;;;;;;11.85;2.20;;;31.50;99.30;;;;;;5078252;28;20217;-67
2022/07/22 09:24:32;;;;;;;7.78;2.60;;;31.50;99.00;;;;;;5071591;28;20248;-69
2022/07/22 09:26:58;;;;;;;5.97;2.30;;;31.70;99.10;;;;;;5081033;28;20267;-66
2022/07/22 09:29:25;;;;;;;5.13;2.10;;;31.70;99.40;;;;;;5079977;28;20186;-68
2022/07/22 09:31:53;;;;;;;5.65;2.35;;;31.80;99.30;;;;;;5068741;28;20230;-66
2022/07/22 09:34:34;;;;;;;8.05;2.30;;;31.90;98.50;;;;;;5069992;28;20194;-68
2022/07/22 09:37:02;;;;;;;7.15;2.05;;;31.90;99.10;;;;;;5085264;28;20178;-66
2022/07/22 09:39:33;;;;;;;4.90;2.17;;;32.00;99.20;;;;;;5083830;28;20192;-67
2022/07/22 09:42:06;;;;;;;6.60;2.25;;;32.10;98.80;;;;;;5085212;28;20606;-68
2022/07/22 09:44:33;;;;;;;5.45;2.10;;;32.20;98.50;;;;;;5068140;28;20182;-66
2022/07/22 09:46:59;;;;;;;3.90;2.10;;;32.30;97.50;;;;;;5083979;28;20193;-66
2022/07/22 09:49:39;;;;;;;8.90;2.03;;;32.40;97.70;;;;;;5086492;28;20190;-68
2022/07/22 09:52:07;;;;;;;8.20;2.50;;;32.30;96.70;;;;;;5081591;28;20374;-67
2022/07/22 09:54:35;;;;;;;7.80;2.25;;;32.40;97.10;;;;;;5062412;28;20577;-66
2022/07/22 09:57:01;;;;;;;5.38;2.30;;;32.50;96.50;;;;;;5057597;28;20182;-66
2022/07/22 09:59:28;;;;;;;4.88;1.90;;;32.50;95.90;;;;;;5081311;28;20174;-65
2022/07/22 10:02:03;;;;;;;8.20;2.30;;;32.50;95.60;;;;;;5083170;28;20190;-67
2022/07/22 10:04:35;;;;;;;11.02;2.45;;;32.60;94.80;;;;;;5075114;28;20190;-65
2022/07/22 10:07:02;;;;;;;5.00;2.10;;;32.60;94.70;;;;;;5086346;28;20615;-67
2022/07/22 10:09:30;;;;;;;7.25;2.05;;;32.60;95.00;;;;;;5068271;28;20186;-67
2022/07/22 10:11:57;;;;;;;8.48;1.77;;;32.70;94.30;;;;;;5060247;28;20890;-69
2022/07/22 10:14:25;;;;;;;8.15;2.30;;;32.80;93.50;;;;;;5085456;28;20520;-67
2022/07/22 10:16:52;;;;;;;11.88;2.10;;;33.00;93.30;;;;;;5090429;28;20289;-66
2022/07/22 10:19:19;;;;;;;3.03;1.50;;;33.10;91.80;;;;;;5087494;28;20326;-66
2022/07/22 10:21:45;;;;;;;9.57;1.60;;;33.10;88.40;;;;;;5069169;28;20222;-67
2022/07/22 10:24:23;;;;;;;10.48;1.88;;;33.20;90.20;;;;;;5071133;28;20277;-65
2022/07/22 10:26:57;;;;;;;7.05;1.65;;;33.20;84.70;;;;;;5085974;28;20206;-65
2022/07/22 10:29:46;;;;;;;5.15;1.52;;;33.20;88.10;;;;;;5054952;28;20192;-66
2022/07/22 10:32:21;;;;;;;2.38;1.30;;;33.30;82.30;;;;;;5067910;28;20226;-66
2022/07/22 10:35:03;;;;;;;4.78;1.90;;;33.30;83.10;;;;;;5082867;28;20196;-68
2022/07/22 10:37:38;;;;;;;5.00;1.60;;;33.20;81.90;;;;;;5085439;28;20186;-67
2022/07/22 10:40:22;;;;;;;3.70;1.40;;;33.10;83.20;;;;;;5086559;28;20187;-66
2022/07/22 10:42:57;;;;;;;8.48;1.70;;;33.30;82.20;;;;;;5084870;28;20198;-66
2022/07/22 10:45:31;;;;;;;4.15;1.20;;;33.50;74.40;;;;;;5088136;28;20234;-67
2022/07/22 10:48:16;;;;;;;3.50;1.10;;;33.50;72.50;;;;;;5066952;28;20194;-67
2022/07/22 10:51:04;;;;;;;5.18;1.52;;;33.50;73.10;;;;;;5089843;28;20220;-67
2022/07/22 10:54:03;;;;;;;7.18;1.55;;;33.40;71.20;;;;;;5088081;28;20197;-65
2022/07/22 10:56:35;;;;;;;3.97;1.23;;;33.40;70.30;;;;;;5081869;28;20788;-68
2022/07/22 10:59:19;;;;;;;5.72;1.63;;;33.50;70.20;;;;;;5088066;28;20194;-68
2022/07/22 11:01:57;;;;;;;8.32;1.60;;;33.50;72.40;;;;;;5088363;28;20683;-66
2022/07/22 11:04:26;;;;;;;5.50;1.30;;;33.50;70.10;;;;;;5063296;28;20213;-66
2022/07/22 11:06:57;;;;;;;5.57;1.40;;;33.50;69.50;;;;;;5069658;28;20205;-68
2022/07/22 11:09:32;;;;;;;5.32;1.45;;;33.50;68.70;;;;;;5083097;28;20316;-68
2022/07/22 11:11:59;;;;;;;7.43;1.70;;;33.50;67.10;;;;;;5079695;28;20205;-67
2022/07/22 11:14:36;;;;;;;5.07;1.70;;;33.50;76.60;;;;;;5086460;28;20194;-65
2022/07/22 11:17:09;;;;;;;4.43;1.70;;;33.40;78.40;;;;;;5081582;28;20632;-68
2022/07/22 11:19:40;;;;;;;3.80;1.33;;;33.20;78.50;;;;;;5078004;28;20209;-65
2022/07/22 11:22:11;;;;;;;7.55;1.70;;;33.30;75.10;;;;;;5087687;28;20222;-65
2022/07/22 11:24:39;;;;;;;10.70;1.80;;;33.30;75.80;;;;;;5085791;28;20189;-67
2022/07/22 11:27:15;;;;;;;3.78;1.67;;;33.20;79.60;;;;;;5075686;28;20194;-65
2022/07/22 11:29:44;;;;;;;7.38;1.60;;;33.10;79.90;;;;;;5083053;28;20194;-68
2022/07/22 11:32:15;;;;;;;10.00;1.48;;;32.80;80.20;;;;;;5081961;28;20216;-66
2022/07/22 11:34:46;;;;;;;3.05;1.40;;;32.80;79.40;;;;;;5080410;28;20179;-68
2022/07/22 11:37:23;;;;;;;4.53;1.60;;;32.80;80.50;;;;;;5083294;28;20201;-65
2022/07/22 11:39:51;;;;;;;11.80;1.42;;;32.90;78.30;;;;;;5086691;28;20197;-67
2022/07/22 11:42:18;;;;;;;3.38;1.40;;;33.10;78.30;;;;;;5082748;28;20273;-65
2022/07/22 11:44:44;;;;;;;5.28;1.50;;;33.10;78.30;;;;;;5065813;28;20194;-65
2022/07/22 11:47:12;;;;;;;4.32;1.42;;;33.30;80.10;;;;;;5086952;28;20190;-65
2022/07/22 11:49:39;;;;;;;10.73;1.52;;;33.10;82.10;;;;;;5066443;28;20689;-67
2022/07/22 11:52:13;;;;;;;4.55;1.48;;;33.10;81.80;;;;;;5086603;28;20217;-65
2022/07/22 11:54:42;;;;;;;6.75;1.55;;;33.10;82.30;;;;;;5068567;28;20213;-67
2022/07/22 11:57:08;;;;;;;4.70;1.50;;;33.00;82.20;;;;;;5070453;28;20186;-67
2022/07/22 11:59:36;;;;;;;5.75;1.58;;;32.80;82.20;;;;;;5071330;28;20278;-65
2022/07/22 12:02:06;;;;;;;4.43;1.60;;;32.80;81.90;;;;;;5090630;28;20662;-66
2022/07/22 12:04:34;;;;;;;4.68;1.80;;;32.80;83.00;;;;;;5088392;28;20217;-65
2022/07/22 12:07:02;;;;;;;3.05;1.25;;;32.80;82.50;;;;;;5084408;28;20198;-65
2022/07/22 12:09:36;;;;;;;4.72;1.60;;;32.80;81.00;;;;;;5074344;28;20190;-68
2022/07/22 12:12:04;;;;;;;3.15;1.50;;;32.80;81.30;;;;;;5087072;28;20207;-65
2022/07/22 12:14:34;;;;;;;7.00;1.40;;;32.70;82.00;;;;;;5084388;28;20202;-66
2022/07/22 12:17:04;;;;;;;3.30;1.58;;;32.70;80.90;;;;;;5079207;28;20213;-66
2022/07/22 12:19:34;;;;;;;4.53;1.30;;;32.70;80.90;;;;;;5082143;28;20186;-68
2022/07/22 12:22:10;;;;;;;8.65;1.40;;;32.80;78.90;;;;;;5079088;28;20212;-65
2022/07/22 12:24:42;;;;;;;5.35;1.50;;;32.90;79.50;;;;;;5060624;28;20192;-66
2022/07/22 12:27:17;;;;;;;3.50;1.70;;;32.90;80.30;;;;;;5060023;28;20202;-66
2022/07/22 12:29:49;;;;;;;3.88;1.35;;;32.90;80.50;;;;;;5067672;28;20190;-66
2022/07/22 12:32:24;;;;;;;3.15;1.38;;;32.90;80.10;;;;;;5085107;28;20818;-66
2022/07/22 12:35:06;;;;;;;4.68;1.40;;;32.90;78.70;;;;;;5082699;28;20218;-66
2022/07/22 12:37:44;;;;;;;8.20;1.52;;;33.00;80.80;;;;;;5060444;28;20218;-65
2022/07/22 12:40:22;;;;;;;5.30;1.50;;;32.90;80.60;;;;;;5082524;28;20182;-67
2022/07/22 12:43:06;;;;;;;6.18;1.73;;;32.90;81.30;;;;;;5083651;28;20261;-65
2022/07/22 12:45:37;;;;;;;5.70;1.20;;;33.00;79.80;;;;;;5084243;28;20649;-66
2022/07/22 12:48:04;;;;;;;4.30;1.50;;;33.00;79.90;;;;;;5084332;28;20180;-68
2022/07/22 12:50:42;;;;;;;5.10;1.40;;;33.00;80.70;;;;;;5068966;28;20216;-66
2022/07/22 12:53:18;;;;;;;6.38;1.45;;;32.80;80.00;;;;;;5086810;28;20188;-68